UKBB/KBP METAR and TAF weather

Enter ICAO airport designator
Station Type Date Time Source
UKBB METAR 2020/11/25 23:00 UTC NOAA

UKBB 252300Z 27002MPS 9000 OVC040 05/04 Q1022 R88/290050 NOSIG


Station Type Date Time Source
UKBB Decoded METAR 2020/11/25 23:00 UTC NOAA

Boryspil, Ukraine (UKBB) 50-20N 030-58E 122M
Nov 25, 2020 - 06:00 PM EST / 2020.11.25 2300 UTC
Wind: from the W (270 degrees) at 4 MPH (4 KT):0
Visibility: 5 mile(s):0
Sky conditions: overcast
Temperature: 41 F (5 C)
Dew Point: 39 F (4 C)
Relative Humidity: 93%
Pressure (altimeter): 30.18 in. Hg (1022 hPa)
ob: UKBB 252300Z 27002MPS 9000 OVC040 05/04 Q1022 R88/290050 NOSIG
cycle: 23

Station Type Date Time Source
UKBB TAF 2020/11/25 18:25 UTC NOAA

TAF UKBB 251702Z 2518/2618 30004MPS 9999 OVC010 TX07/2612Z TN03/2605Z
TEMPO 2520/2606 1600 BR OVC004 PROB40
TEMPO 2522/2606 0400 -DZ FG OVC002
BECMG 2603/2605 22005MPS

Example: see airport list